Time;durP1;ratioP1;P1;durP2;ratioP2;P2;SDS_P1;SDS_P2;PMS_P1;PMS_P2;Temp;Humidity;BMP_temperature;BMP_pressure;BME280_temperature;BME280_humidity;BME280_pressure;Samples;Min_cycle;Max_cycle;Signal;HPM_P1;HPM_P2
2021/08/27 00:02:10;;;;;;;9.27;4.47;;;17.00;99.90;;;;;;4969169;28;20277;-61
2021/08/27 00:04:36;;;;;;;8.67;4.60;;;17.00;99.90;;;;;;4965641;28;20678;-62
2021/08/27 00:07:02;;;;;;;6.43;4.07;;;17.10;99.90;;;;;;4949180;28;20231;-61
2021/08/27 00:09:27;;;;;;;6.77;4.00;;;16.90;99.90;;;;;;4964808;28;20511;-62
2021/08/27 00:11:54;;;;;;;5.53;3.70;;;16.90;99.90;;;;;;4964468;28;20249;-62
2021/08/27 00:14:20;;;;;;;4.90;4.00;;;17.00;99.90;;;;;;4964258;28;20242;-63
2021/08/27 00:16:45;;;;;;;5.40;3.97;;;17.00;99.90;;;;;;4940530;28;20512;-61
2021/08/27 00:19:11;;;;;;;6.67;3.47;;;16.90;99.90;;;;;;4946787;28;20187;-62
2021/08/27 00:21:37;;;;;;;9.23;5.00;;;16.90;99.90;;;;;;4966534;28;20273;-61
2021/08/27 00:24:03;;;;;;;9.00;4.57;;;16.80;99.90;;;;;;4962562;28;20195;-61
2021/08/27 00:26:33;;;;;;;8.90;4.17;;;16.90;99.90;;;;;;4965230;28;20457;-62
2021/08/27 00:28:59;;;;;;;7.13;3.50;;;17.00;99.90;;;;;;4951996;28;21709;-61
2021/08/27 00:31:25;;;;;;;8.57;4.40;;;17.10;99.90;;;;;;4961721;28;20462;-64
2021/08/27 00:33:50;;;;;;;9.20;4.00;;;17.20;99.90;;;;;;4963294;28;20844;-63
2021/08/27 00:36:16;;;;;;;4.90;3.87;;;17.00;99.90;;;;;;4966708;28;20298;-63
2021/08/27 00:38:42;;;;;;;12.60;4.57;;;16.90;99.90;;;;;;4962625;28;20199;-63
2021/08/27 00:41:07;;;;;;;4.87;4.20;;;16.90;99.90;;;;;;4964569;28;20565;-63
2021/08/27 00:43:33;;;;;;;6.70;4.13;;;16.80;99.90;;;;;;4965485;28;20904;-63
2021/08/27 00:46:00;;;;;;;6.60;3.97;;;16.80;99.90;;;;;;4961730;28;20674;-63
2021/08/27 00:48:25;;;;;;;7.40;4.33;;;16.90;99.90;;;;;;4963156;28;20191;-63
2021/08/27 00:50:51;;;;;;;5.50;4.30;;;16.80;99.90;;;;;;4923357;28;20958;-63
2021/08/27 00:53:17;;;;;;;3.80;3.50;;;16.80;99.90;;;;;;4961954;28;20191;-63
2021/08/27 00:55:46;;;;;;;9.77;4.73;;;16.70;99.90;;;;;;4964578;28;20643;-63
2021/08/27 00:58:14;;;;;;;7.63;5.07;;;16.80;99.90;;;;;;4964523;28;20454;-63
2021/08/27 01:00:40;;;;;;;8.37;5.97;;;16.80;99.90;;;;;;4967190;28;20454;-59
2021/08/27 01:03:08;;;;;;;5.10;4.33;;;16.80;99.90;;;;;;4963778;28;20457;-59
2021/08/27 01:05:35;;;;;;;10.00;4.10;;;16.80;99.90;;;;;;4963640;28;20956;-59
2021/08/27 01:08:19;;;;;;;6.17;4.73;;;16.70;99.90;;;;;;4933204;28;20463;-59
2021/08/27 01:10:52;;;;;;;5.90;3.87;;;16.60;99.90;;;;;;4965825;28;20426;-59
2021/08/27 01:13:24;;;;;;;10.00;4.63;;;16.70;99.90;;;;;;4961176;28;20979;-59
2021/08/27 01:15:59;;;;;;;5.00;3.60;;;16.80;99.90;;;;;;4948144;28;20445;-58
2021/08/27 01:18:34;;;;;;;4.90;3.60;;;16.80;99.90;;;;;;4966097;28;20429;-59
2021/08/27 01:21:18;;;;;;;4.60;3.60;;;16.70;99.90;;;;;;4963170;28;20516;-58
2021/08/27 01:23:53;;;;;;;8.27;4.47;;;16.80;99.90;;;;;;4949967;28;21035;-59
2021/08/27 01:26:22;;;;;;;7.23;4.03;;;16.70;99.90;;;;;;4964230;28;20441;-59
2021/08/27 01:28:53;;;;;;;4.90;4.20;;;16.80;99.90;;;;;;4959497;28;20442;-59
2021/08/27 01:31:47;;;;;;;7.37;4.67;;;16.80;99.90;;;;;;4963117;28;20447;-59
2021/08/27 01:34:35;;;;;;;7.53;4.47;;;16.60;99.90;;;;;;4963591;28;20954;-59
2021/08/27 01:37:06;;;;;;;10.63;4.57;;;16.60;99.90;;;;;;4960725;28;20929;-59
2021/08/27 01:39:37;;;;;;;7.93;4.57;;;16.80;99.90;;;;;;4964730;28;20438;-59
2021/08/27 01:42:05;;;;;;;6.27;5.07;;;16.60;99.90;;;;;;4959932;28;20482;-59
2021/08/27 01:44:31;;;;;;;8.73;4.90;;;16.50;99.90;;;;;;4959760;28;20445;-58
2021/08/27 01:46:58;;;;;;;7.30;4.33;;;16.70;99.90;;;;;;4945702;28;20508;-59
2021/08/27 01:49:28;;;;;;;9.03;4.67;;;16.70;99.90;;;;;;4959822;28;20824;-59
2021/08/27 01:51:56;;;;;;;9.30;4.23;;;16.70;99.90;;;;;;4961805;28;20441;-59
2021/08/27 01:54:22;;;;;;;7.13;4.80;;;16.70;99.90;;;;;;4963189;28;20469;-59
2021/08/27 01:56:49;;;;;;;7.53;4.67;;;16.90;99.90;;;;;;4964121;28;20476;-59
2021/08/27 01:59:16;;;;;;;8.07;4.20;;;17.00;99.90;;;;;;4962325;28;20438;-60
2021/08/27 02:01:43;;;;;;;6.40;3.83;;;17.10;99.90;;;;;;4945421;28;20490;-60
2021/08/27 02:04:12;;;;;;;7.30;4.20;;;17.40;99.90;;;;;;4959528;28;20456;-59
2021/08/27 02:06:41;;;;;;;6.57;4.30;;;17.40;99.90;;;;;;4962446;28;20916;-62
2021/08/27 02:09:08;;;;;;;4.40;4.00;;;17.40;99.90;;;;;;4949269;28;20878;-64
2021/08/27 02:11:34;;;;;;;7.00;4.13;;;17.40;99.90;;;;;;4931500;28;20448;-64
2021/08/27 02:14:01;;;;;;;3.50;3.20;;;17.20;99.90;;;;;;4959976;28;20469;-64
2021/08/27 02:16:27;;;;;;;4.43;3.47;;;17.00;99.90;;;;;;4961845;28;20561;-64
2021/08/27 02:18:53;;;;;;;8.73;3.40;;;17.20;99.90;;;;;;4960222;28;20553;-64
2021/08/27 02:21:21;;;;;;;4.90;3.60;;;17.20;99.90;;;;;;4962200;28;20281;-64
2021/08/27 02:23:49;;;;;;;4.80;3.00;;;17.40;99.90;;;;;;4960403;28;20480;-64
2021/08/27 02:26:16;;;;;;;5.23;3.63;;;17.40;99.90;;;;;;4961141;28;20532;-64
2021/08/27 02:28:43;;;;;;;4.97;3.30;;;17.50;99.90;;;;;;4943668;28;20533;-63
2021/08/27 02:31:11;;;;;;;8.00;3.90;;;17.50;99.90;;;;;;4960337;28;20441;-62
2021/08/27 02:33:45;;;;;;;4.57;3.10;;;17.50;99.90;;;;;;4958693;28;20485;-62
2021/08/27 02:36:15;;;;;;;3.50;2.93;;;17.30;99.90;;;;;;4966367;28;20437;-60
2021/08/27 02:38:44;;;;;;;6.83;3.03;;;17.20;99.90;;;;;;4947207;28;20426;-62
2021/08/27 02:41:10;;;;;;;4.97;3.00;;;17.30;99.90;;;;;;4960491;28;20842;-59
2021/08/27 02:43:35;;;;;;;3.57;2.60;;;17.40;99.90;;;;;;4964103;28;20453;-60
2021/08/27 02:46:01;;;;;;;3.07;2.37;;;17.30;99.90;;;;;;4959479;28;20361;-60
2021/08/27 02:48:26;;;;;;;2.93;2.10;;;17.20;99.90;;;;;;4967334;28;20272;-60
2021/08/27 02:51:03;;;;;;;5.30;2.40;;;16.80;99.90;;;;;;4967161;28;20270;-59
2021/08/27 02:53:32;;;;;;;5.03;2.77;;;16.70;99.90;;;;;;4964538;28;20550;-59
2021/08/27 02:56:08;;;;;;;3.70;2.33;;;16.80;99.90;;;;;;4965932;28;20436;-59
2021/08/27 02:58:35;;;;;;;3.53;2.20;;;16.80;99.90;;;;;;4965889;28;20831;-59
2021/08/27 03:01:04;;;;;;;3.53;2.60;;;16.90;99.90;;;;;;4944156;28;20544;-59
2021/08/27 03:03:34;;;;;;;5.00;3.03;;;16.80;99.90;;;;;;4965581;28;20447;-60
2021/08/27 03:06:23;;;;;;;4.47;2.63;;;16.70;99.90;;;;;;4963789;28;20473;-59
2021/08/27 03:09:09;;;;;;;4.57;2.57;;;16.70;99.90;;;;;;4966894;28;20492;-62
2021/08/27 03:11:51;;;;;;;4.43;3.30;;;16.50;99.90;;;;;;4965326;28;20940;-62
2021/08/27 03:14:28;;;;;;;5.43;3.50;;;16.50;99.90;;;;;;4965206;28;20473;-62
2021/08/27 03:16:58;;;;;;;4.70;3.83;;;16.40;99.90;;;;;;4963669;28;20517;-62
2021/08/27 03:19:32;;;;;;;5.77;3.80;;;16.30;99.90;;;;;;4967877;28;20433;-62
2021/08/27 03:22:04;;;;;;;4.47;3.73;;;16.40;99.90;;;;;;4965887;28;20488;-62
2021/08/27 03:24:35;;;;;;;5.97;4.10;;;16.20;99.90;;;;;;4964692;28;20544;-62
2021/08/27 03:27:05;;;;;;;6.50;3.50;;;16.20;99.90;;;;;;4969086;28;20866;-62
2021/08/27 03:29:36;;;;;;;8.33;3.40;;;16.30;99.90;;;;;;4964020;28;20449;-62
2021/08/27 03:32:04;;;;;;;4.30;3.43;;;16.30;99.90;;;;;;4965253;28;20457;-62
2021/08/27 03:34:30;;;;;;;6.30;3.87;;;16.10;99.90;;;;;;4964886;28;20470;-62
2021/08/27 03:37:00;;;;;;;4.37;2.93;;;16.30;99.90;;;;;;4963633;28;20553;-62
2021/08/27 03:39:28;;;;;;;3.53;3.23;;;16.40;99.90;;;;;;4965325;28;20469;-63
2021/08/27 03:41:55;;;;;;;4.23;3.30;;;16.40;99.90;;;;;;4948462;28;21002;-64
2021/08/27 03:44:21;;;;;;;4.20;3.20;;;16.60;99.90;;;;;;4963850;28;20442;-63
2021/08/27 03:46:47;;;;;;;4.77;3.37;;;16.50;99.90;;;;;;4964373;28;20472;-64
2021/08/27 03:49:15;;;;;;;3.83;3.10;;;16.50;99.90;;;;;;4964804;28;20486;-64
2021/08/27 03:51:41;;;;;;;6.83;4.27;;;16.50;99.90;;;;;;4926136;28;20455;-64
2021/08/27 03:54:08;;;;;;;5.13;3.23;;;16.60;99.90;;;;;;4967088;28;20486;-63
2021/08/27 03:56:34;;;;;;;3.93;3.63;;;16.40;99.90;;;;;;4946344;28;20498;-63
2021/08/27 03:59:01;;;;;;;5.23;3.70;;;16.40;99.90;;;;;;4966203;28;20464;-64
2021/08/27 04:01:27;;;;;;;4.10;3.33;;;16.20;99.90;;;;;;4951503;28;20439;-63
2021/08/27 04:03:53;;;;;;;6.77;3.60;;;16.50;99.90;;;;;;4964945;28;20446;-64
2021/08/27 04:06:19;;;;;;;4.63;3.60;;;16.50;99.90;;;;;;4942360;28;20460;-63
2021/08/27 04:08:45;;;;;;;5.07;3.17;;;16.40;99.90;;;;;;4966465;28;20988;-64
2021/08/27 04:11:14;;;;;;;5.67;3.23;;;16.50;99.90;;;;;;4949104;28;20178;-63
2021/08/27 04:13:41;;;;;;;5.60;3.73;;;16.50;99.90;;;;;;4943006;28;20453;-64
2021/08/27 04:16:07;;;;;;;3.50;3.20;;;16.30;99.90;;;;;;4966304;28;20452;-64
2021/08/27 04:18:33;;;;;;;5.20;3.80;;;16.50;99.90;;;;;;4963885;28;20434;-63
2021/08/27 04:21:00;;;;;;;5.90;3.10;;;16.40;99.90;;;;;;4963271;28;20468;-64
2021/08/27 04:23:26;;;;;;;3.23;2.77;;;16.50;99.90;;;;;;4964580;28;20190;-64
2021/08/27 04:25:52;;;;;;;6.30;3.03;;;16.40;99.90;;;;;;4962797;28;20714;-64
2021/08/27 04:28:18;;;;;;;4.00;3.20;;;16.30;99.90;;;;;;4967149;28;21692;-64
2021/08/27 04:30:43;;;;;;;4.03;3.03;;;16.40;99.90;;;;;;4964798;28;20260;-63
2021/08/27 04:33:09;;;;;;;5.90;3.00;;;16.60;99.90;;;;;;4962971;28;20454;-64
2021/08/27 04:35:35;;;;;;;7.83;3.77;;;16.60;99.90;;;;;;4963764;28;20617;-64
2021/08/27 04:38:01;;;;;;;6.13;3.40;;;16.40;99.90;;;;;;4964191;28;20218;-64
2021/08/27 04:40:27;;;;;;;4.40;2.67;;;16.30;99.90;;;;;;4966152;28;20437;-64
2021/08/27 04:42:53;;;;;;;6.77;3.30;;;16.30;99.90;;;;;;4963192;28;20696;-63
2021/08/27 04:45:20;;;;;;;5.90;3.13;;;16.40;99.90;;;;;;4947246;28;20195;-63
2021/08/27 04:47:45;;;;;;;16.63;4.20;;;16.50;99.90;;;;;;4966460;28;20489;-63
2021/08/27 04:50:12;;;;;;;8.87;4.93;;;16.40;99.90;;;;;;4960881;28;20862;-63
2021/08/27 04:52:38;;;;;;;8.17;3.60;;;16.30;99.90;;;;;;4965820;28;20202;-63
2021/08/27 04:55:05;;;;;;;7.80;3.83;;;16.40;99.90;;;;;;4965444;28;20476;-62
2021/08/27 04:57:31;;;;;;;7.23;4.20;;;16.60;99.90;;;;;;4963466;28;20693;-62
2021/08/27 04:59:57;;;;;;;6.37;4.20;;;16.60;99.90;;;;;;4943885;28;20448;-62
2021/08/27 05:02:23;;;;;;;6.73;4.10;;;16.70;99.90;;;;;;4963636;28;20227;-62
2021/08/27 05:04:48;;;;;;;4.43;3.87;;;16.70;99.90;;;;;;4959786;28;21091;-62
2021/08/27 05:07:14;;;;;;;6.27;4.80;;;16.80;99.90;;;;;;4962780;28;20469;-62
2021/08/27 05:09:40;;;;;;;6.40;4.33;;;16.60;99.90;;;;;;4963195;28;20568;-62
2021/08/27 05:12:06;;;;;;;4.80;4.30;;;16.60;99.90;;;;;;4961851;28;21420;-63
2021/08/27 05:14:34;;;;;;;4.70;4.17;;;16.70;99.90;;;;;;4962402;28;20218;-63
2021/08/27 05:17:00;;;;;;;4.33;3.90;;;16.80;99.90;;;;;;4958045;28;20484;-62
2021/08/27 05:19:26;;;;;;;4.83;3.90;;;16.80;99.90;;;;;;4925934;28;20430;-59
2021/08/27 05:21:51;;;;;;;5.37;3.60;;;16.90;99.90;;;;;;4960653;28;20198;-59
2021/08/27 05:24:17;;;;;;;3.97;3.40;;;17.00;99.90;;;;;;4960653;28;20217;-60
2021/08/27 05:26:45;;;;;;;4.40;3.50;;;17.00;99.90;;;;;;4965034;28;20688;-64
2021/08/27 05:29:11;;;;;;;6.70;3.57;;;17.10;99.90;;;;;;4961689;28;20198;-63
2021/08/27 05:31:37;;;;;;;7.40;3.70;;;17.10;99.90;;;;;;4957967;28;20480;-63
2021/08/27 05:34:06;;;;;;;5.50;3.60;;;17.20;99.90;;;;;;4963207;28;20477;-64
2021/08/27 05:36:32;;;;;;;7.40;4.30;;;17.30;99.90;;;;;;4960596;28;20223;-64
2021/08/27 05:38:58;;;;;;;9.40;3.93;;;17.30;99.90;;;;;;4939727;28;20797;-64
2021/08/27 05:41:23;;;;;;;6.90;4.53;;;17.40;99.90;;;;;;4958910;28;20190;-64
2021/08/27 05:43:49;;;;;;;7.40;4.00;;;17.30;99.90;;;;;;4960729;28;20201;-64
2021/08/27 05:46:14;;;;;;;6.30;3.83;;;17.20;99.90;;;;;;4962442;28;20193;-64
2021/08/27 05:48:40;;;;;;;6.60;4.80;;;17.30;99.90;;;;;;4959819;28;20510;-63
2021/08/27 05:51:06;;;;;;;8.73;4.27;;;17.30;99.90;;;;;;4960945;28;20197;-64
2021/08/27 05:53:32;;;;;;;4.73;4.10;;;17.20;99.90;;;;;;4962716;28;20619;-64
2021/08/27 05:55:57;;;;;;;13.23;5.70;;;17.30;99.90;;;;;;4960875;28;20220;-63
2021/08/27 05:58:23;;;;;;;4.47;3.80;;;17.40;99.90;;;;;;4962552;28;20458;-63
2021/08/27 06:00:50;;;;;;;5.57;4.13;;;17.40;99.90;;;;;;4960526;28;20196;-64
2021/08/27 06:03:16;;;;;;;5.63;4.50;;;17.40;99.90;;;;;;4960884;28;20187;-64
2021/08/27 06:05:42;;;;;;;16.30;4.60;;;17.30;99.90;;;;;;4962848;28;20726;-63
2021/08/27 06:08:07;;;;;;;6.10;4.47;;;17.40;99.90;;;;;;4960566;28;20837;-64
2021/08/27 06:10:33;;;;;;;6.50;4.90;;;17.40;99.90;;;;;;4944799;28;20199;-64
2021/08/27 06:12:59;;;;;;;4.10;3.70;;;17.40;99.90;;;;;;4941921;28;20588;-60
2021/08/27 06:15:25;;;;;;;6.90;4.50;;;17.40;99.90;;;;;;4960086;28;20472;-60
2021/08/27 06:17:50;;;;;;;5.37;4.27;;;17.40;99.90;;;;;;4958381;28;20218;-59
2021/08/27 06:20:16;;;;;;;4.03;3.63;;;17.40;99.90;;;;;;4958261;28;20192;-60
2021/08/27 06:22:42;;;;;;;6.70;4.27;;;17.30;99.90;;;;;;4962908;28;20608;-59
2021/08/27 06:25:08;;;;;;;7.83;4.50;;;17.40;99.90;;;;;;4964906;28;20210;-60
2021/08/27 06:27:34;;;;;;;9.57;4.50;;;17.30;99.90;;;;;;4964921;28;20217;-60
2021/08/27 06:30:00;;;;;;;9.43;7.00;;;17.30;99.90;;;;;;4964411;28;20855;-60
2021/08/27 06:32:27;;;;;;;8.50;5.20;;;17.40;99.90;;;;;;4966714;28;20442;-59
2021/08/27 06:34:54;;;;;;;6.93;4.77;;;17.30;99.90;;;;;;4963559;28;20505;-59
2021/08/27 06:37:21;;;;;;;6.10;5.50;;;17.20;99.90;;;;;;4965261;28;20454;-59
2021/08/27 06:39:47;;;;;;;9.93;5.17;;;17.20;99.90;;;;;;4967958;28;20793;-59
2021/08/27 06:42:13;;;;;;;7.50;5.20;;;17.30;99.90;;;;;;4946934;28;20442;-59
2021/08/27 06:44:38;;;;;;;9.00;4.60;;;17.30;99.90;;;;;;4966156;28;20183;-59
2021/08/27 06:47:05;;;;;;;6.53;4.63;;;17.30;99.90;;;;;;4965740;28;20222;-59
2021/08/27 06:49:30;;;;;;;7.50;4.47;;;17.30;99.90;;;;;;4934420;28;20555;-59
2021/08/27 06:51:56;;;;;;;7.77;4.20;;;17.20;99.90;;;;;;4965479;28;20448;-59
2021/08/27 06:54:22;;;;;;;8.23;4.13;;;17.20;99.90;;;;;;4962950;28;20214;-59
2021/08/27 06:56:47;;;;;;;5.73;4.33;;;17.30;99.90;;;;;;4950332;28;20198;-59
2021/08/27 06:59:13;;;;;;;4.73;3.63;;;17.30;99.90;;;;;;4967228;28;20226;-59
2021/08/27 07:01:39;;;;;;;3.73;3.40;;;17.40;99.90;;;;;;4967898;28;20246;-59
2021/08/27 07:04:04;;;;;;;7.60;4.17;;;17.40;99.90;;;;;;4964281;28;20454;-60
2021/08/27 07:06:30;;;;;;;4.13;3.40;;;17.50;99.90;;;;;;4968135;28;20210;-61
2021/08/27 07:08:56;;;;;;;6.50;3.40;;;17.50;99.90;;;;;;4944392;28;20666;-64
2021/08/27 07:11:22;;;;;;;4.63;3.20;;;17.50;99.90;;;;;;4965072;28;20219;-65
2021/08/27 07:13:47;;;;;;;5.40;3.43;;;17.60;99.90;;;;;;4968309;28;20190;-60
2021/08/27 07:16:13;;;;;;;5.73;3.50;;;17.70;99.90;;;;;;4967553;28;20209;-60
2021/08/27 07:18:43;;;;;;;13.30;7.50;;;17.80;99.90;;;;;;4947218;28;20191;-62
2021/08/27 07:21:09;;;;;;;7.37;4.70;;;17.90;99.90;;;;;;4968797;28;20419;-60
2021/08/27 07:23:35;;;;;;;9.60;5.50;;;17.90;99.90;;;;;;4968797;28;20437;-61
2021/08/27 07:26:01;;;;;;;9.73;6.77;;;18.10;99.90;;;;;;4968035;28;20186;-60
2021/08/27 07:28:27;;;;;;;4.60;3.67;;;18.00;99.90;;;;;;4952021;28;20474;-61
2021/08/27 07:30:52;;;;;;;7.83;5.60;;;18.10;99.90;;;;;;4967399;28;20470;-64
2021/08/27 07:33:18;;;;;;;7.20;3.93;;;18.00;99.90;;;;;;4950879;28;20190;-64
2021/08/27 07:35:44;;;;;;;4.73;3.53;;;18.00;99.90;;;;;;4964294;28;20206;-64
2021/08/27 07:38:10;;;;;;;6.80;3.67;;;18.00;99.90;;;;;;4965931;28;20214;-64
2021/08/27 07:40:36;;;;;;;31.30;8.80;;;18.00;99.90;;;;;;4940958;28;20187;-64
2021/08/27 07:43:02;;;;;;;4.03;3.00;;;18.00;99.90;;;;;;4967293;28;20951;-65
2021/08/27 07:45:29;;;;;;;4.33;3.13;;;18.10;99.90;;;;;;4963288;28;20207;-64
2021/08/27 07:47:54;;;;;;;4.17;3.17;;;18.10;99.90;;;;;;4944730;28;20223;-64
2021/08/27 07:50:20;;;;;;;5.13;3.27;;;18.00;99.90;;;;;;4963868;28;20441;-64
2021/08/27 07:52:45;;;;;;;4.73;3.20;;;18.00;99.90;;;;;;4965075;28;20183;-64
2021/08/27 07:55:11;;;;;;;5.10;3.17;;;18.10;99.90;;;;;;4965122;28;20597;-64
2021/08/27 07:57:44;;;;;;;7.30;3.50;;;18.20;99.90;;;;;;4965857;28;20206;-61
2021/08/27 08:00:10;;;;;;;8.70;4.27;;;18.40;99.90;;;;;;4966819;28;20175;-61
2021/08/27 08:02:36;;;;;;;7.20;3.60;;;18.60;99.90;;;;;;4953124;28;20443;-60
2021/08/27 08:05:03;;;;;;;4.70;3.20;;;18.70;99.90;;;;;;4967913;28;20477;-60
2021/08/27 08:07:28;;;;;;;4.17;3.63;;;18.80;99.90;;;;;;4959243;28;20565;-62
2021/08/27 08:09:54;;;;;;;4.90;3.00;;;18.90;99.90;;;;;;4945299;28;20545;-61
2021/08/27 08:12:19;;;;;;;3.57;2.70;;;18.90;99.90;;;;;;4962155;28;20198;-61
2021/08/27 08:14:46;;;;;;;4.70;3.27;;;18.70;99.90;;;;;;4958658;28;20257;-61
2021/08/27 08:17:12;;;;;;;4.63;3.07;;;18.70;99.90;;;;;;4963678;28;20521;-61
2021/08/27 08:19:38;;;;;;;4.63;2.83;;;18.70;99.90;;;;;;4967011;28;20249;-62
2021/08/27 08:22:04;;;;;;;5.30;2.93;;;18.50;99.90;;;;;;4963954;28;20190;-61
2021/08/27 08:24:29;;;;;;;3.37;3.03;;;18.40;99.90;;;;;;4964191;28;20190;-63
2021/08/27 08:26:55;;;;;;;3.30;2.50;;;18.30;99.90;;;;;;4961731;28;20214;-61
2021/08/27 08:29:21;;;;;;;3.83;3.10;;;18.40;99.90;;;;;;4964358;28;20278;-62
2021/08/27 08:31:47;;;;;;;4.47;2.87;;;18.60;99.90;;;;;;4964688;28;20194;-62
2021/08/27 08:34:13;;;;;;;3.77;2.90;;;18.80;99.90;;;;;;4948888;28;20218;-62
2021/08/27 08:36:39;;;;;;;9.03;3.53;;;19.00;99.90;;;;;;4945908;28;20217;-62
2021/08/27 08:39:05;;;;;;;3.07;2.77;;;19.10;99.90;;;;;;4948173;28;20435;-62
2021/08/27 08:41:31;;;;;;;4.07;3.67;;;19.10;99.90;;;;;;4962963;28;20501;-62
2021/08/27 08:43:57;;;;;;;5.03;3.10;;;18.70;99.90;;;;;;4963736;28;20988;-62
2021/08/27 08:46:23;;;;;;;4.20;3.37;;;18.60;99.90;;;;;;4959644;28;20467;-63
2021/08/27 08:48:52;;;;;;;3.37;2.80;;;18.30;99.90;;;;;;4961236;28;20519;-62
2021/08/27 08:51:22;;;;;;;4.63;3.20;;;18.10;99.90;;;;;;4965909;28;20223;-62
2021/08/27 08:53:49;;;;;;;7.10;4.00;;;17.90;99.90;;;;;;4956349;28;20476;-60
2021/08/27 08:56:16;;;;;;;4.10;3.70;;;18.10;99.90;;;;;;4925052;28;20438;-59
2021/08/27 08:58:42;;;;;;;4.27;3.33;;;18.20;99.90;;;;;;4960560;28;20995;-60
2021/08/27 09:01:16;;;;;;;4.50;3.90;;;18.30;99.90;;;;;;4960229;28;20434;-59
2021/08/27 09:03:42;;;;;;;3.90;3.30;;;18.20;99.90;;;;;;4933304;28;21003;-59
2021/08/27 09:06:08;;;;;;;4.63;3.17;;;18.50;99.90;;;;;;4960156;28;20439;-60
2021/08/27 09:08:37;;;;;;;3.40;3.07;;;18.70;99.90;;;;;;4961500;28;20183;-59
2021/08/27 09:11:24;;;;;;;6.60;3.37;;;18.80;99.90;;;;;;4958028;28;20427;-60
2021/08/27 09:13:52;;;;;;;5.53;3.50;;;18.80;99.90;;;;;;4941898;28;21022;-59
2021/08/27 09:16:18;;;;;;;5.07;3.70;;;18.90;99.90;;;;;;4956497;28;21203;-60
2021/08/27 09:18:49;;;;;;;6.40;3.13;;;18.90;99.90;;;;;;4964212;28;20433;-60
2021/08/27 09:21:32;;;;;;;5.57;2.70;;;19.00;99.90;;;;;;4963818;28;21221;-59
2021/08/27 09:24:20;;;;;;;4.17;3.40;;;19.40;99.90;;;;;;4962257;28;20423;-59
2021/08/27 09:26:52;;;;;;;6.80;3.47;;;19.50;99.90;;;;;;4961555;28;20964;-59
2021/08/27 09:29:38;;;;;;;3.70;3.37;;;19.50;99.90;;;;;;4962178;28;20456;-60
2021/08/27 09:32:23;;;;;;;5.60;4.07;;;19.30;99.90;;;;;;4945792;28;20437;-60
2021/08/27 09:34:59;;;;;;;5.13;4.03;;;19.00;99.90;;;;;;4962451;28;20470;-59
2021/08/27 09:37:39;;;;;;;5.20;3.00;;;18.90;99.90;;;;;;4963296;28;20450;-59
2021/08/27 09:40:07;;;;;;;4.43;2.87;;;19.00;99.90;;;;;;4959779;28;20448;-60
2021/08/27 09:42:37;;;;;;;4.73;3.20;;;18.70;99.90;;;;;;4954764;28;20497;-60
2021/08/27 09:45:04;;;;;;;4.10;2.90;;;18.60;99.90;;;;;;4963582;28;20434;-60
2021/08/27 09:47:29;;;;;;;10.27;2.73;;;18.70;99.90;;;;;;4938796;28;20536;-60
2021/08/27 09:50:18;;;;;;;3.57;2.80;;;18.80;99.90;;;;;;4965659;28;21104;-60
2021/08/27 09:52:53;;;;;;;4.33;3.50;;;19.00;99.90;;;;;;4963099;28;20213;-60
2021/08/27 09:55:19;;;;;;;7.47;3.20;;;18.80;99.90;;;;;;4960907;28;20465;-60
2021/08/27 09:57:45;;;;;;;4.30;2.97;;;18.90;99.90;;;;;;4964447;28;21126;-60
2021/08/27 10:00:21;;;;;;;4.17;2.63;;;19.00;99.90;;;;;;4964235;28;20516;-60
2021/08/27 10:02:48;;;;;;;6.87;3.80;;;19.10;99.90;;;;;;4961541;28;20198;-60
2021/08/27 10:05:14;;;;;;;4.13;3.30;;;19.10;99.90;;;;;;4963809;28;20430;-60
2021/08/27 10:07:41;;;;;;;7.40;3.50;;;19.30;99.90;;;;;;4961547;28;20469;-60
2021/08/27 10:10:12;;;;;;;3.87;3.20;;;19.40;99.90;;;;;;4962457;28;20481;-60
2021/08/27 10:12:40;;;;;;;3.70;2.60;;;19.50;99.90;;;;;;4950375;28;20434;-59
2021/08/27 10:15:09;;;;;;;3.83;2.90;;;19.70;99.90;;;;;;4961611;28;20966;-60
2021/08/27 10:17:35;;;;;;;4.03;2.40;;;19.70;99.90;;;;;;4964039;28;20461;-62
2021/08/27 10:20:10;;;;;;;2.90;2.67;;;19.70;99.90;;;;;;4947233;28;20444;-62
2021/08/27 10:22:42;;;;;;;6.03;3.20;;;19.70;99.90;;;;;;4963487;28;20421;-62
2021/08/27 10:25:10;;;;;;;7.03;2.60;;;19.70;99.90;;;;;;4962312;28;20470;-62
2021/08/27 10:27:36;;;;;;;3.40;3.10;;;19.80;99.90;;;;;;4950053;28;20955;-61
2021/08/27 10:30:05;;;;;;;3.20;2.63;;;19.90;99.90;;;;;;4967163;28;20434;-60
2021/08/27 10:32:40;;;;;;;3.10;2.80;;;20.10;99.90;;;;;;4964585;28;20434;-60
2021/08/27 10:35:36;;;;;;;5.00;3.00;;;20.20;99.90;;;;;;4959875;28;20528;-60
2021/08/27 10:38:01;;;;;;;5.67;3.13;;;20.30;99.90;;;;;;4937142;28;20472;-60
2021/08/27 10:40:27;;;;;;;4.80;3.10;;;20.70;99.90;;;;;;4960819;28;20439;-62
2021/08/27 10:42:56;;;;;;;2.97;2.67;;;20.40;99.90;;;;;;4944705;28;20187;-60
2021/08/27 10:45:52;;;;;;;5.00;2.87;;;20.10;99.90;;;;;;4961971;28;20193;-62
2021/08/27 10:48:19;;;;;;;3.00;2.23;;;19.80;99.90;;;;;;4962086;28;20481;-63
2021/08/27 10:50:47;;;;;;;2.97;2.67;;;19.90;99.90;;;;;;4942773;28;20441;-63
2021/08/27 10:53:19;;;;;;;5.93;2.80;;;20.10;99.90;;;;;;4961251;28;20429;-63
2021/08/27 10:55:45;;;;;;;4.40;3.33;;;20.10;99.90;;;;;;4961209;28;20580;-62
2021/08/27 10:58:13;;;;;;;5.20;2.73;;;20.30;99.90;;;;;;4937194;28;20465;-62
2021/08/27 11:00:44;;;;;;;5.33;3.40;;;20.30;99.90;;;;;;4960053;28;20451;-62
2021/08/27 11:03:11;;;;;;;4.10;2.70;;;20.20;99.90;;;;;;4929790;28;20458;-62
2021/08/27 11:05:48;;;;;;;3.33;3.03;;;20.10;99.90;;;;;;4961792;28;22541;-63
2021/08/27 11:08:30;;;;;;;3.97;2.80;;;20.20;99.90;;;;;;4961565;28;20487;-63
2021/08/27 11:11:08;;;;;;;3.40;3.10;;;20.00;99.90;;;;;;4963713;28;20485;-63
2021/08/27 11:13:35;;;;;;;3.83;3.40;;;20.00;99.90;;;;;;4963262;28;20469;-62
2021/08/27 11:16:21;;;;;;;3.90;3.37;;;20.00;99.90;;;;;;4959602;28;20474;-62
2021/08/27 11:18:48;;;;;;;3.60;3.20;;;19.90;99.90;;;;;;4960868;28;20447;-62
2021/08/27 11:21:31;;;;;;;4.53;3.00;;;19.90;99.90;;;;;;4958111;28;22245;-62
2021/08/27 11:24:16;;;;;;;5.83;3.30;;;19.80;99.90;;;;;;4964328;28;20480;-62
2021/08/27 11:27:04;;;;;;;5.10;3.10;;;19.70;99.90;;;;;;4966036;28;20446;-62
2021/08/27 11:29:40;;;;;;;8.07;3.70;;;19.80;99.90;;;;;;4922280;28;20481;-60
2021/08/27 11:32:27;;;;;;;3.77;3.40;;;19.80;99.90;;;;;;4963707;28;20959;-58
2021/08/27 11:34:58;;;;;;;6.60;4.53;;;19.80;99.90;;;;;;4959734;28;20540;-59
2021/08/27 11:37:32;;;;;;;4.30;3.60;;;20.00;99.90;;;;;;4957201;28;20493;-58
2021/08/27 11:40:00;;;;;;;4.90;4.40;;;20.10;99.90;;;;;;4961909;28;20452;-59
2021/08/27 11:42:26;;;;;;;3.67;3.37;;;20.10;99.90;;;;;;4962992;28;20986;-59
2021/08/27 11:45:03;;;;;;;5.37;4.03;;;20.20;99.90;;;;;;4960091;28;20434;-59
2021/08/27 11:47:44;;;;;;;4.07;3.57;;;20.40;99.90;;;;;;4960900;28;20458;-58
2021/08/27 11:50:31;;;;;;;3.70;3.40;;;20.50;99.90;;;;;;4962287;28;20520;-60
2021/08/27 11:52:59;;;;;;;4.17;3.77;;;20.30;99.90;;;;;;4962117;28;20418;-60
2021/08/27 11:55:26;;;;;;;6.30;4.17;;;20.40;99.90;;;;;;4960346;28;20841;-60
2021/08/27 11:57:59;;;;;;;4.00;3.60;;;20.60;99.90;;;;;;4959609;28;20478;-60
2021/08/27 12:00:30;;;;;;;5.53;4.73;;;20.90;99.90;;;;;;4950384;28;20423;-60
2021/08/27 12:02:57;;;;;;;6.80;4.37;;;21.00;99.90;;;;;;4963414;28;20434;-60
2021/08/27 12:05:24;;;;;;;6.07;4.13;;;21.00;99.90;;;;;;4948598;28;20481;-60
2021/08/27 12:07:57;;;;;;;3.77;3.47;;;21.30;99.90;;;;;;4946050;28;20465;-60
2021/08/27 12:10:34;;;;;;;8.03;4.83;;;21.60;99.90;;;;;;4964525;28;20469;-60
2021/08/27 12:13:01;;;;;;;4.20;3.87;;;22.00;99.90;;;;;;4965329;28;20442;-60
2021/08/27 12:15:33;;;;;;;6.20;4.30;;;21.80;99.90;;;;;;4967919;28;20544;-60
2021/08/27 12:18:00;;;;;;;12.07;3.80;;;21.80;99.90;;;;;;4947846;28;20579;-60
2021/08/27 12:20:31;;;;;;;4.47;4.07;;;21.50;99.90;;;;;;4966911;28;20488;-60
2021/08/27 12:23:04;;;;;;;4.73;3.93;;;21.20;99.90;;;;;;4962145;28;20438;-63
2021/08/27 12:25:38;;;;;;;4.80;4.40;;;20.80;99.90;;;;;;4964187;28;20492;-63
2021/08/27 12:28:04;;;;;;;4.10;3.70;;;20.90;99.90;;;;;;4946591;28;20457;-63
2021/08/27 12:30:30;;;;;;;4.97;4.47;;;20.60;99.90;;;;;;4963259;28;20944;-63
2021/08/27 12:32:57;;;;;;;4.47;3.80;;;20.20;99.90;;;;;;4966089;28;20477;-64
2021/08/27 12:35:30;;;;;;;4.33;3.93;;;20.30;99.90;;;;;;4967973;28;20266;-64
2021/08/27 12:37:56;;;;;;;5.03;3.90;;;20.40;99.90;;;;;;4945553;28;20544;-64
2021/08/27 12:40:24;;;;;;;4.93;4.10;;;20.60;99.90;;;;;;4965134;28;20518;-63
2021/08/27 12:42:59;;;;;;;5.10;4.00;;;20.50;99.90;;;;;;4965037;28;20968;-64
2021/08/27 12:45:25;;;;;;;4.73;4.33;;;20.60;99.90;;;;;;4963801;28;20433;-64
2021/08/27 12:48:01;;;;;;;4.27;3.30;;;20.70;99.90;;;;;;4964188;28;20516;-64
2021/08/27 12:50:27;;;;;;;4.70;4.13;;;20.80;99.90;;;;;;4964797;28;20429;-64
2021/08/27 12:53:00;;;;;;;3.83;3.53;;;20.80;99.90;;;;;;4965491;28;20917;-59
2021/08/27 12:55:29;;;;;;;3.80;3.00;;;20.90;99.90;;;;;;4964932;28;20222;-59